createdAt,value
2023-02-14T00:01:08.341Z,11.60
2023-02-14T00:03:36.609Z,10.73
2023-02-14T00:06:08.505Z,11.13
2023-02-14T00:08:38.040Z,14.17
2023-02-14T00:11:06.485Z,14.23
2023-02-14T00:13:34.679Z,12.23
2023-02-14T00:16:01.930Z,12.00
2023-02-14T00:18:44.120Z,13.10
2023-02-14T00:21:12.370Z,11.50
2023-02-14T00:23:41.882Z,10.80
2023-02-14T00:26:14.932Z,12.00
2023-02-14T00:28:43.201Z,11.53
2023-02-14T00:31:11.433Z,11.17
2023-02-14T00:33:39.758Z,11.57
2023-02-14T00:36:08.379Z,11.53
2023-02-14T00:38:36.602Z,11.07
2023-02-14T00:41:06.336Z,12.20
2023-02-14T00:43:34.626Z,12.70
2023-02-14T00:46:03.193Z,11.57
2023-02-14T00:48:31.469Z,11.90
2023-02-14T00:51:00.089Z,12.03
2023-02-14T00:53:28.641Z,12.03
2023-02-14T00:55:56.854Z,11.90
2023-02-14T00:58:26.501Z,11.83
2023-02-14T01:00:54.963Z,10.63
2023-02-14T01:03:23.366Z,10.73
2023-02-14T01:05:51.920Z,10.40
2023-02-14T01:08:20.415Z,12.50
2023-02-14T01:10:49.097Z,11.93
2023-02-14T01:13:17.414Z,11.87
2023-02-14T01:15:47.821Z,11.73
2023-02-14T01:18:16.657Z,10.90
2023-02-14T01:20:44.886Z,10.07
2023-02-14T01:23:13.265Z,9.80
2023-02-14T01:25:41.552Z,11.03
2023-02-14T01:28:09.793Z,12.30
2023-02-14T01:30:38.016Z,10.50
2023-02-14T01:36:24.356Z,10.83
2023-02-14T01:38:53.389Z,10.17
2023-02-14T01:41:22.165Z,9.23
2023-02-14T01:43:54.355Z,12.20
2023-02-14T01:46:22.694Z,10.00
2023-02-14T01:48:52.559Z,9.03
2023-02-14T01:51:21.667Z,8.93
2023-02-14T01:53:51.370Z,10.60
2023-02-14T01:56:21.511Z,9.03
2023-02-14T01:58:52.734Z,9.30
2023-02-14T02:01:24.445Z,9.20
2023-02-14T02:03:55.672Z,10.50
2023-02-14T02:06:25.808Z,9.63
2023-02-14T02:08:56.296Z,10.40
2023-02-14T02:11:24.525Z,9.93
2023-02-14T02:13:52.781Z,10.10
2023-02-14T02:16:29.217Z,10.37
2023-02-14T02:19:04.032Z,11.80
2023-02-14T02:21:46.418Z,11.33
2023-02-14T02:24:23.789Z,11.87
2023-02-14T02:27:08.878Z,10.87
2023-02-14T02:29:55.722Z,11.10
2023-02-14T02:32:33.449Z,10.83
2023-02-14T02:35:25.753Z,10.33
2023-02-14T02:38:03.201Z,11.80
2023-02-14T02:40:35.824Z,11.53
2023-02-14T02:43:08.647Z,12.33
2023-02-14T02:46:03.192Z,10.67
2023-02-14T02:48:37.942Z,10.00
2023-02-14T02:51:26.520Z,10.30
2023-02-14T02:53:58.289Z,9.80
2023-02-14T02:56:48.719Z,10.60
2023-02-14T02:59:19.252Z,10.47
2023-02-14T03:01:49.928Z,10.80
2023-02-14T03:04:36.233Z,10.10
2023-02-14T03:07:24.801Z,10.37
2023-02-14T03:09:56.694Z,9.50
2023-02-14T03:12:41.784Z,9.13
2023-02-14T03:15:13.340Z,9.63
2023-02-14T03:17:46.813Z,10.53
2023-02-14T03:20:17.042Z,10.37
2023-02-14T03:22:52.745Z,11.17
2023-02-14T03:25:29.588Z,9.97
2023-02-14T03:28:00.955Z,10.30
2023-02-14T03:30:36.597Z,11.30
2023-02-14T03:33:06.411Z,11.67
2023-02-14T03:35:36.777Z,11.37
2023-02-14T03:38:07.345Z,11.93
2023-02-14T03:40:38.176Z,11.20
2023-02-14T03:43:09.135Z,11.60
2023-02-14T03:45:38.908Z,12.17
2023-02-14T03:48:09.641Z,11.80
2023-02-14T03:50:39.777Z,11.23
2023-02-14T03:53:09.036Z,12.03
2023-02-14T03:55:42.237Z,12.90
2023-02-14T03:58:12.336Z,11.83
2023-02-14T04:00:42.112Z,11.67
2023-02-14T04:03:12.770Z,12.10
2023-02-14T04:05:43.555Z,11.07
2023-02-14T04:08:12.803Z,12.50
2023-02-14T04:10:43.573Z,12.47
2023-02-14T04:13:11.821Z,13.00
2023-02-14T04:15:40.065Z,12.70
2023-02-14T04:18:26.176Z,11.83
2023-02-14T04:20:54.384Z,12.30
2023-02-14T04:23:22.607Z,11.50
2023-02-14T04:25:52.145Z,11.83
2023-02-14T04:28:20.355Z,10.60
2023-02-14T04:30:48.579Z,10.40
2023-02-14T04:33:16.842Z,9.80
2023-02-14T04:35:45.046Z,11.47
2023-02-14T04:38:13.300Z,11.40
2023-02-14T04:40:41.499Z,10.80
2023-02-14T04:43:11.023Z,9.80
2023-02-14T04:45:39.407Z,10.73
2023-02-14T04:48:07.612Z,10.97
2023-02-14T04:50:35.849Z,10.77
2023-02-14T04:53:04.012Z,10.70
2023-02-14T04:55:32.375Z,10.10
2023-02-14T04:58:00.569Z,12.17
2023-02-14T05:00:30.135Z,12.17
2023-02-14T05:02:58.372Z,12.40
2023-02-14T05:05:26.588Z,10.60
2023-02-14T05:07:54.801Z,13.30
2023-02-14T05:10:22.985Z,10.10
2023-02-14T05:12:51.198Z,11.13
2023-02-14T05:15:19.435Z,11.43
2023-02-14T05:17:48.950Z,11.30
2023-02-14T05:20:17.139Z,11.10
2023-02-14T05:22:45.353Z,11.90
2023-02-14T05:25:13.574Z,11.97
2023-02-14T05:27:42.522Z,11.30
2023-02-14T05:30:11.487Z,11.80
2023-02-14T05:32:39.761Z,12.50
2023-02-14T05:35:09.805Z,11.50
2023-02-14T05:37:37.953Z,11.90
2023-02-14T05:40:07.447Z,11.70
2023-02-14T05:42:35.585Z,10.13
2023-02-14T05:45:03.754Z,10.10
2023-02-14T05:47:32.138Z,10.73
2023-02-14T05:50:00.358Z,9.30
2023-02-14T05:52:29.915Z,9.43
2023-02-14T05:54:58.078Z,15.37
2023-02-14T05:57:26.295Z,11.60
2023-02-14T05:59:54.519Z,13.50
2023-02-14T06:02:22.761Z,15.13
2023-02-14T06:04:51.061Z,11.67
2023-02-14T06:07:19.329Z,11.30
2023-02-14T06:09:48.803Z,10.90
2023-02-14T06:12:17.249Z,12.30
2023-02-14T06:14:45.613Z,11.13
2023-02-14T06:17:13.821Z,11.93
2023-02-14T06:19:43.192Z,11.20
2023-02-14T06:22:11.400Z,10.33
2023-02-14T06:24:39.534Z,11.03
2023-02-14T06:27:09.295Z,10.80
2023-02-14T06:29:37.476Z,11.10
2023-02-14T06:32:07.063Z,10.53
2023-02-14T06:34:35.554Z,11.07
2023-02-14T06:37:03.883Z,10.17
2023-02-14T06:39:32.026Z,11.80
2023-02-14T06:42:00.222Z,10.80
2023-02-14T06:44:29.921Z,12.73
2023-02-14T06:47:00.429Z,11.20
2023-02-14T06:49:28.583Z,11.70
2023-02-14T06:51:56.752Z,11.63
2023-02-14T06:54:26.120Z,11.07
2023-02-14T06:56:54.343Z,10.57
2023-02-14T06:59:22.556Z,12.60
2023-02-14T07:01:52.245Z,10.70
2023-02-14T07:04:20.488Z,10.63
2023-02-14T07:06:48.735Z,10.93
2023-02-14T07:09:18.316Z,10.13
2023-02-14T07:11:46.908Z,10.70
2023-02-14T07:14:15.376Z,13.70
2023-02-14T07:16:43.589Z,16.00
2023-02-14T07:19:13.160Z,9.20
2023-02-14T07:21:41.412Z,10.07
2023-02-14T07:24:09.725Z,10.37
2023-02-14T07:26:37.985Z,11.27
2023-02-14T07:29:06.268Z,11.80
2023-02-14T07:31:34.567Z,10.50
2023-02-14T07:34:02.864Z,10.27
2023-02-14T07:36:32.425Z,9.70
2023-02-14T07:39:00.650Z,9.77
2023-02-14T07:41:28.889Z,9.60
2023-02-14T07:43:57.170Z,9.50
2023-02-14T07:46:25.583Z,10.10
2023-02-14T07:48:53.897Z,10.20
2023-02-14T07:51:22.094Z,9.57
2023-02-14T07:53:51.660Z,8.67
2023-02-14T07:56:19.849Z,8.70
2023-02-14T07:58:49.703Z,10.10
2023-02-14T08:01:18.007Z,9.07
2023-02-14T08:03:49.388Z,8.80
2023-02-14T08:06:17.637Z,8.93
2023-02-14T08:08:46.228Z,9.83
2023-02-14T08:11:36.273Z,9.43
2023-02-14T08:14:04.667Z,9.13
2023-02-14T08:16:34.600Z,9.43
2023-02-14T08:19:03.234Z,10.63
2023-02-14T08:21:31.772Z,10.00
2023-02-14T08:23:59.931Z,9.53
2023-02-14T08:26:30.703Z,9.07
2023-02-14T08:28:58.923Z,8.40
2023-02-14T08:31:35.267Z,8.30
2023-02-14T08:34:04.103Z,9.10
2023-02-14T08:36:32.310Z,9.50
2023-02-14T08:39:00.533Z,9.20
2023-02-14T08:41:30.072Z,16.13
2023-02-14T08:43:58.286Z,11.00
2023-02-14T08:46:26.586Z,8.90
2023-02-14T08:48:54.848Z,8.80
2023-02-14T08:51:23.235Z,8.93
2023-02-14T08:53:52.147Z,8.20
2023-02-14T08:56:22.624Z,9.07
2023-02-14T08:58:54.946Z,8.73
2023-02-14T09:01:23.426Z,8.33
2023-02-14T09:03:51.677Z,9.03
2023-02-14T09:06:20.058Z,10.20
2023-02-14T09:08:48.412Z,8.50
2023-02-14T09:11:18.499Z,9.03
2023-02-14T09:13:47.360Z,8.97
2023-02-14T09:16:17.769Z,10.00
2023-02-14T09:18:46.375Z,9.03
2023-02-14T09:21:15.829Z,9.63
2023-02-14T09:23:44.184Z,10.13
2023-02-14T09:26:13.771Z,10.67
2023-02-14T09:28:42.347Z,10.03
2023-02-14T09:31:11.271Z,10.13
2023-02-14T09:33:41.143Z,10.20
2023-02-14T09:36:27.330Z,8.87
2023-02-14T09:38:55.578Z,10.17
2023-02-14T09:41:40.426Z,10.80
2023-02-14T09:44:10.669Z,12.53
2023-02-14T09:46:42.127Z,12.63
2023-02-14T09:49:15.459Z,12.67
2023-02-14T09:51:46.863Z,12.10
2023-02-14T09:54:15.874Z,12.63
2023-02-14T09:56:52.100Z,13.50
2023-02-14T09:59:25.939Z,12.20
2023-02-14T10:01:56.676Z,12.80
2023-02-14T10:04:29.232Z,12.80
2023-02-14T10:07:00.492Z,12.30
2023-02-14T10:09:43.327Z,12.40
2023-02-14T10:12:16.359Z,13.50
2023-02-14T10:14:44.937Z,11.90
2023-02-14T10:17:16.875Z,11.23
2023-02-14T10:19:49.878Z,10.97
2023-02-14T10:22:19.783Z,11.90
2023-02-14T10:24:50.487Z,11.00
2023-02-14T10:27:26.188Z,11.00
2023-02-14T10:29:54.477Z,10.23
2023-02-14T10:32:25.257Z,12.00
2023-02-14T10:34:57.615Z,11.60
2023-02-14T10:37:39.774Z,11.20
2023-02-14T10:40:17.425Z,11.47
2023-02-14T10:42:51.195Z,10.80
2023-02-14T10:45:23.552Z,11.30
2023-02-14T10:47:54.709Z,11.73
2023-02-14T10:50:27.846Z,11.50
2023-02-14T10:53:00.910Z,11.23
2023-02-14T10:55:35.224Z,12.03
2023-02-14T10:58:05.078Z,13.03
2023-02-14T11:00:35.127Z,11.70
2023-02-14T11:03:05.828Z,13.20
2023-02-14T11:05:36.646Z,12.77
2023-02-14T11:08:13.863Z,12.63
2023-02-14T11:10:42.166Z,12.83
2023-02-14T11:13:25.203Z,12.60
2023-02-14T11:15:54.137Z,14.50
2023-02-14T11:18:23.759Z,13.50
2023-02-14T11:21:03.419Z,14.47
2023-02-14T11:23:34.977Z,13.07
2023-02-14T11:26:04.450Z,12.57
2023-02-14T11:28:32.711Z,13.03
2023-02-14T11:31:01.493Z,13.50
2023-02-14T11:33:36.428Z,12.73
2023-02-14T11:36:07.677Z,14.20
2023-02-14T11:38:38.366Z,13.93
2023-02-14T11:41:08.056Z,12.87
2023-02-14T11:43:37.536Z,11.80
2023-02-14T11:46:07.741Z,12.10
2023-02-14T11:48:38.784Z,11.80
2023-02-14T11:51:10.094Z,11.90
2023-02-14T11:53:48.929Z,11.67
2023-02-14T11:56:18.557Z,11.90
2023-02-14T11:58:49.556Z,11.97
2023-02-14T12:01:24.046Z,12.37
2023-02-14T12:03:53.501Z,10.93
2023-02-14T12:06:26.630Z,11.40
2023-02-14T12:09:11.815Z,11.17
2023-02-14T12:11:40.034Z,10.13
2023-02-14T12:14:21.577Z,11.00
2023-02-14T12:16:53.287Z,11.00
2023-02-14T12:19:23.125Z,10.90
2023-02-14T12:21:55.443Z,10.60
2023-02-14T12:24:27.677Z,10.47
2023-02-14T12:26:59.161Z,10.60
2023-02-14T12:29:31.067Z,11.23
2023-02-14T12:32:02.803Z,10.20
2023-02-14T12:34:31.531Z,11.07
2023-02-14T12:37:09.505Z,10.70
2023-02-14T12:39:44.813Z,11.43
2023-02-14T12:42:17.000Z,10.47
2023-02-14T12:44:50.327Z,9.87
2023-02-14T12:47:20.724Z,9.97
2023-02-14T12:50:03.774Z,10.90
2023-02-14T12:52:46.886Z,11.13
2023-02-14T12:55:29.359Z,11.00
2023-02-14T12:57:59.442Z,11.17
2023-02-14T13:00:35.193Z,9.90
2023-02-14T13:03:12.294Z,11.10
2023-02-14T13:05:46.118Z,10.70
2023-02-14T13:08:19.296Z,10.50
2023-02-14T13:10:55.205Z,10.50
2023-02-14T13:13:27.852Z,10.40
2023-02-14T13:15:58.695Z,10.20
2023-02-14T13:18:33.555Z,10.50
2023-02-14T13:21:03.077Z,10.60
2023-02-14T13:23:35.519Z,10.40
2023-02-14T13:26:08.278Z,10.60
2023-02-14T13:28:37.802Z,9.20
2023-02-14T13:31:06.405Z,9.60
2023-02-14T13:33:36.365Z,10.10
2023-02-14T13:36:05.857Z,10.57
2023-02-14T13:38:34.277Z,10.50
2023-02-14T13:41:04.875Z,10.73
2023-02-14T13:43:51.615Z,11.03
2023-02-14T13:46:23.111Z,12.00
2023-02-14T13:48:59.154Z,12.00
2023-02-14T13:51:42.224Z,12.27
2023-02-14T13:54:21.739Z,11.50
2023-02-14T13:56:50.420Z,11.80
2023-02-14T13:59:27.136Z,11.73
2023-02-14T14:01:56.946Z,11.30
2023-02-14T14:04:39.356Z,11.63
2023-02-14T14:07:17.293Z,11.30
2023-02-14T14:09:56.391Z,11.07
2023-02-14T14:12:40.790Z,11.37
2023-02-14T14:15:20.366Z,11.70
2023-02-14T14:17:51.574Z,11.17
2023-02-14T14:20:32.928Z,11.23
2023-02-14T14:23:02.246Z,11.53
2023-02-14T14:25:33.363Z,11.80
2023-02-14T14:28:01.834Z,12.40
2023-02-14T14:30:33.042Z,11.43
2023-02-14T14:33:15.708Z,12.03
2023-02-14T14:35:53.926Z,11.77
2023-02-14T14:38:22.173Z,12.10
2023-02-14T14:40:50.895Z,12.47
2023-02-14T14:43:22.760Z,12.67
2023-02-14T14:45:53.269Z,11.40
2023-02-14T14:48:25.337Z,12.27
2023-02-14T14:50:53.633Z,12.37
2023-02-14T14:53:23.445Z,12.60
2023-02-14T14:55:53.185Z,12.63
2023-02-14T14:58:38.134Z,13.93
2023-02-14T15:01:06.998Z,12.83
2023-02-14T15:03:36.616Z,12.53
2023-02-14T15:06:07.045Z,13.27
2023-02-14T15:08:35.427Z,13.90
2023-02-14T15:11:07.324Z,13.30
2023-02-14T15:13:53.851Z,13.90
2023-02-14T15:16:23.321Z,14.07
2023-02-14T15:18:53.427Z,13.37
2023-02-14T15:21:21.793Z,14.60
2023-02-14T15:23:50.297Z,14.83
2023-02-14T15:26:19.786Z,15.27
2023-02-14T15:28:55.970Z,14.37
2023-02-14T15:31:24.369Z,15.43
2023-02-14T15:33:54.117Z,14.47
2023-02-14T15:36:25.205Z,16.40
2023-02-14T15:38:53.799Z,16.13
2023-02-14T15:41:24.261Z,16.47
2023-02-14T15:43:53.896Z,15.97
2023-02-14T15:46:28.089Z,17.13
2023-02-14T15:49:00.675Z,15.57
2023-02-14T15:51:29.999Z,17.47
2023-02-14T15:53:59.206Z,17.10
2023-02-14T15:56:29.581Z,16.17
2023-02-14T15:59:00.541Z,15.50
2023-02-14T16:01:29.146Z,15.63
2023-02-14T16:04:00.423Z,16.00
2023-02-14T16:06:33.841Z,16.33
2023-02-14T16:09:02.727Z,15.23
2023-02-14T16:11:31.870Z,16.27
2023-02-14T16:14:00.328Z,15.90
2023-02-14T16:16:48.526Z,15.40
2023-02-14T16:19:31.657Z,14.63
2023-02-14T16:22:01.170Z,15.20
2023-02-14T16:24:29.696Z,15.67
2023-02-14T16:26:58.158Z,16.13
2023-02-14T16:29:26.384Z,16.87
2023-02-14T16:32:14.522Z,16.60
2023-02-14T16:34:43.825Z,17.17
2023-02-14T16:37:20.630Z,16.20
2023-02-14T16:39:49.226Z,16.67
2023-02-14T16:42:18.290Z,15.87
2023-02-14T16:44:46.881Z,27.53
2023-02-14T16:47:15.748Z,25.27
2023-02-14T16:49:43.947Z,18.83
2023-02-14T16:52:14.417Z,15.77
2023-02-14T16:54:44.029Z,16.43
2023-02-14T16:57:14.403Z,16.73
2023-02-14T16:59:42.607Z,16.03
2023-02-14T17:02:11.925Z,14.30
2023-02-14T17:04:40.223Z,14.83
2023-02-14T17:07:08.840Z,16.23
2023-02-14T17:09:38.175Z,15.60
2023-02-14T17:12:11.504Z,15.37
2023-02-14T17:14:40.394Z,16.50
2023-02-14T17:17:08.671Z,16.50
2023-02-14T17:19:36.979Z,16.30
2023-02-14T17:22:05.583Z,17.00
2023-02-14T17:24:33.907Z,16.50
2023-02-14T17:27:02.081Z,15.83
2023-02-14T17:29:31.793Z,16.23
2023-02-14T17:32:00.094Z,16.57
2023-02-14T17:34:32.283Z,17.20
2023-02-14T17:37:00.633Z,16.10
2023-02-14T17:39:28.826Z,15.90
2023-02-14T17:41:57.599Z,16.10
2023-02-14T17:44:26.004Z,15.90
2023-02-14T17:46:55.538Z,16.40
2023-02-14T17:49:23.720Z,15.17
2023-02-14T17:51:52.759Z,14.90
2023-02-14T17:54:20.993Z,16.20
2023-02-14T17:56:49.262Z,16.00
2023-02-14T17:59:17.515Z,17.50
2023-02-14T18:01:45.763Z,16.43
2023-02-14T18:04:15.297Z,17.43
2023-02-14T18:06:43.624Z,18.03
2023-02-14T18:09:11.829Z,18.63
2023-02-14T18:11:42.177Z,20.17
2023-02-14T18:14:10.403Z,17.17
2023-02-14T18:16:38.612Z,19.13
2023-02-14T18:19:07.228Z,19.30
2023-02-14T18:21:39.916Z,18.63
2023-02-14T18:24:08.752Z,19.10
2023-02-14T18:26:38.165Z,19.53
2023-02-14T18:29:07.454Z,19.60
2023-02-14T18:31:36.444Z,17.50
2023-02-14T18:34:05.102Z,18.93
2023-02-14T18:36:33.796Z,18.47
2023-02-14T18:39:03.337Z,16.90
2023-02-14T18:41:31.723Z,17.70
2023-02-14T18:43:59.876Z,17.13
2023-02-14T18:46:28.571Z,16.60
2023-02-14T18:48:57.295Z,15.53
2023-02-14T18:51:26.119Z,15.10
2023-02-14T18:53:54.937Z,15.27
2023-02-14T18:56:27.101Z,16.90
2023-02-14T18:58:56.431Z,15.33
2023-02-14T19:01:25.444Z,14.53
2023-02-14T19:03:54.570Z,15.27
2023-02-14T19:06:23.323Z,15.57
2023-02-14T19:08:51.533Z,15.70
2023-02-14T19:11:20.601Z,16.50
2023-02-14T19:13:51.024Z,16.27
2023-02-14T19:16:21.115Z,15.70
2023-02-14T19:18:50.971Z,14.87
2023-02-14T19:21:21.271Z,13.93
2023-02-14T19:23:49.991Z,14.40
2023-02-14T19:26:19.612Z,12.03
2023-02-14T19:28:48.387Z,13.00
2023-02-14T19:31:18.150Z,13.17
2023-02-14T19:33:47.909Z,14.07
2023-02-14T19:36:16.989Z,11.97
2023-02-14T19:38:45.915Z,13.47
2023-02-14T19:41:16.559Z,14.10
2023-02-14T19:43:45.816Z,13.40
2023-02-14T19:46:14.697Z,12.80
2023-02-14T19:48:45.075Z,13.10
2023-02-14T19:51:16.472Z,12.73
2023-02-14T19:53:44.643Z,12.47
2023-02-14T19:56:12.953Z,12.83
2023-02-14T19:58:41.644Z,12.40
2023-02-14T20:01:16.501Z,11.83
2023-02-14T20:03:46.089Z,11.23
2023-02-14T20:06:14.302Z,12.07
2023-02-14T20:08:42.559Z,12.23
2023-02-14T20:11:13.993Z,10.50
2023-02-14T20:13:42.242Z,12.07
2023-02-14T20:16:12.236Z,11.10
2023-02-14T20:18:40.394Z,11.60
2023-02-14T20:21:17.760Z,10.70
2023-02-14T20:23:46.514Z,12.17
2023-02-14T20:26:15.271Z,12.87
2023-02-14T20:28:43.446Z,9.70
2023-02-14T20:31:12.363Z,12.80
2023-02-14T20:33:41.046Z,11.93
2023-02-14T20:36:11.031Z,12.23
2023-02-14T20:38:39.312Z,12.57
2023-02-14T20:41:07.847Z,11.87
2023-02-14T20:43:36.287Z,12.40
2023-02-14T20:46:05.646Z,11.30
2023-02-14T20:48:34.236Z,14.33
2023-02-14T20:51:12.195Z,13.30
2023-02-14T20:53:40.454Z,12.40
2023-02-14T20:56:08.990Z,12.13
2023-02-14T20:58:38.254Z,11.90
2023-02-14T21:01:07.333Z,14.70
2023-02-14T21:03:37.202Z,12.23
2023-02-14T21:06:05.847Z,18.80
2023-02-14T21:08:35.779Z,16.97
2023-02-14T21:11:04.733Z,13.90
2023-02-14T21:13:33.144Z,12.13
2023-02-14T21:16:03.718Z,11.90
2023-02-14T21:18:32.154Z,13.17
2023-02-14T21:21:05.022Z,13.03
2023-02-14T21:23:34.760Z,12.07
2023-02-14T21:26:02.993Z,12.17
2023-02-14T21:28:31.301Z,11.80
2023-02-14T21:31:05.896Z,11.80
2023-02-14T21:33:34.139Z,12.50
2023-02-14T21:36:07.054Z,12.93
2023-02-14T21:38:36.936Z,12.57
2023-02-14T21:41:05.688Z,12.53
2023-02-14T21:43:36.240Z,13.43
2023-02-14T21:46:05.092Z,10.93
2023-02-14T21:48:51.188Z,11.53
2023-02-14T21:51:19.993Z,10.97
2023-02-14T21:53:49.742Z,12.43
2023-02-14T21:56:19.745Z,12.00
2023-02-14T21:58:48.280Z,12.50
2023-02-14T22:01:17.411Z,12.87
2023-02-14T22:03:45.758Z,12.00
2023-02-14T22:06:14.121Z,12.87
2023-02-14T22:08:42.714Z,12.10
2023-02-14T22:11:13.361Z,11.53
2023-02-14T22:13:41.585Z,11.30
2023-02-14T22:16:11.170Z,10.27
2023-02-14T22:18:39.719Z,11.33
2023-02-14T22:21:09.017Z,11.17
2023-02-14T22:23:37.403Z,13.33
2023-02-14T22:26:09.563Z,13.00
2023-02-14T22:28:39.093Z,13.10
2023-02-14T22:31:07.400Z,10.43
2023-02-14T22:33:37.789Z,11.40
2023-02-14T22:36:06.430Z,11.03
2023-02-14T22:38:34.700Z,10.53
2023-02-14T22:41:06.681Z,11.17
2023-02-14T22:43:35.098Z,11.20
2023-02-14T22:46:05.743Z,12.00
2023-02-14T22:48:34.337Z,11.67
2023-02-14T22:51:09.322Z,12.00
2023-02-14T22:53:37.713Z,11.20
2023-02-14T22:56:12.561Z,12.97
2023-02-14T22:58:41.344Z,12.30
2023-02-14T23:01:15.142Z,11.70
2023-02-14T23:03:43.445Z,13.60
2023-02-14T23:06:11.987Z,10.90
2023-02-14T23:08:40.902Z,11.50
2023-02-14T23:11:10.361Z,11.43
2023-02-14T23:13:56.320Z,10.97
2023-02-14T23:16:44.245Z,11.40
2023-02-14T23:19:31.623Z,11.30
2023-02-14T23:22:00.229Z,11.73
2023-02-14T23:24:28.366Z,12.10
2023-02-14T23:26:56.610Z,11.40
2023-02-14T23:29:24.859Z,12.00
2023-02-14T23:31:54.468Z,11.90
2023-02-14T23:34:25.837Z,10.57
2023-02-14T23:36:54.927Z,13.77
2023-02-14T23:39:23.402Z,10.30
2023-02-14T23:41:51.590Z,9.83
2023-02-14T23:44:20.795Z,10.77
2023-02-14T23:46:49.346Z,13.70
2023-02-14T23:49:19.402Z,10.00
2023-02-14T23:51:48.247Z,11.60
2023-02-14T23:54:16.510Z,11.17
2023-02-14T23:56:45.621Z,10.97
2023-02-14T23:59:14.477Z,12.00
